sensor_id;sensor_type;location;lat;lon;timestamp;P1;durP1;ratioP1;P2;durP2;ratioP2
67997;SDS011;54773;53.388;-1.504;2023-05-21T00:00:04;8.25;;;4.13;;
67997;SDS011;54773;53.388;-1.504;2023-05-21T00:02:54;11.30;;;4.75;;
67997;SDS011;54773;53.388;-1.504;2023-05-21T00:05:39;11.25;;;4.80;;
67997;SDS011;54773;53.388;-1.504;2023-05-21T00:08:23;10.52;;;5.28;;
67997;SDS011;54773;53.388;-1.504;2023-05-21T00:11:07;11.63;;;4.97;;
67997;SDS011;54773;53.388;-1.504;2023-05-21T00:13:52;11.57;;;5.22;;
67997;SDS011;54773;53.388;-1.504;2023-05-21T00:16:45;11.55;;;5.18;;
67997;SDS011;54773;53.388;-1.504;2023-05-21T00:19:29;8.77;;;4.65;;
67997;SDS011;54773;53.388;-1.504;2023-05-21T00:22:16;11.85;;;4.45;;
67997;SDS011;54773;53.388;-1.504;2023-05-21T00:25:01;9.77;;;4.80;;
67997;SDS011;54773;53.388;-1.504;2023-05-21T00:27:48;7.80;;;4.13;;
67997;SDS011;54773;53.388;-1.504;2023-05-21T00:30:32;9.18;;;4.80;;
67997;SDS011;54773;53.388;-1.504;2023-05-21T00:33:19;13.38;;;4.80;;
67997;SDS011;54773;53.388;-1.504;2023-05-21T00:36:04;11.50;;;4.75;;
67997;SDS011;54773;53.388;-1.504;2023-05-21T00:38:49;10.25;;;4.75;;
67997;SDS011;54773;53.388;-1.504;2023-05-21T00:41:42;9.13;;;4.78;;
67997;SDS011;54773;53.388;-1.504;2023-05-21T00:44:29;9.00;;;4.75;;
67997;SDS011;54773;53.388;-1.504;2023-05-21T00:47:19;11.07;;;5.47;;
67997;SDS011;54773;53.388;-1.504;2023-05-21T00:50:04;10.98;;;4.50;;
67997;SDS011;54773;53.388;-1.504;2023-05-21T00:52:49;13.23;;;5.57;;
67997;SDS011;54773;53.388;-1.504;2023-05-21T00:55:36;12.40;;;6.38;;
67997;SDS011;54773;53.388;-1.504;2023-05-21T00:58:21;14.05;;;6.15;;
67997;SDS011;54773;53.388;-1.504;2023-05-21T01:03:56;10.50;;;5.88;;
67997;SDS011;54773;53.388;-1.504;2023-05-21T01:06:40;12.60;;;6.32;;
67997;SDS011;54773;53.388;-1.504;2023-05-21T01:09:25;11.02;;;5.53;;
67997;SDS011;54773;53.388;-1.504;2023-05-21T01:12:23;15.13;;;6.72;;
67997;SDS011;54773;53.388;-1.504;2023-05-21T01:15:08;12.93;;;5.65;;
67997;SDS011;54773;53.388;-1.504;2023-05-21T01:18:05;13.93;;;5.90;;
67997;SDS011;54773;53.388;-1.504;2023-05-21T01:20:50;10.77;;;5.57;;
67997;SDS011;54773;53.388;-1.504;2023-05-21T01:23:40;13.43;;;6.05;;
67997;SDS011;54773;53.388;-1.504;2023-05-21T01:33:02;12.50;;;5.85;;
67997;SDS011;54773;53.388;-1.504;2023-05-21T01:41:31;10.00;;;5.72;;
67997;SDS011;54773;53.388;-1.504;2023-05-21T01:44:50;12.55;;;6.65;;
67997;SDS011;54773;53.388;-1.504;2023-05-21T01:48:03;13.52;;;6.55;;
67997;SDS011;54773;53.388;-1.504;2023-05-21T01:51:00;13.43;;;6.93;;
67997;SDS011;54773;53.388;-1.504;2023-05-21T01:53:45;14.43;;;6.10;;
67997;SDS011;54773;53.388;-1.504;2023-05-21T01:56:29;13.03;;;6.43;;
67997;SDS011;54773;53.388;-1.504;2023-05-21T01:59:16;13.43;;;6.60;;
67997;SDS011;54773;53.388;-1.504;2023-05-21T02:02:00;15.45;;;7.32;;
67997;SDS011;54773;53.388;-1.504;2023-05-21T02:04:45;14.50;;;6.75;;
67997;SDS011;54773;53.388;-1.504;2023-05-21T02:07:29;12.40;;;6.47;;
67997;SDS011;54773;53.388;-1.504;2023-05-21T02:10:15;13.27;;;7.05;;
67997;SDS011;54773;53.388;-1.504;2023-05-21T02:12:59;15.63;;;7.57;;
67997;SDS011;54773;53.388;-1.504;2023-05-21T02:15:43;14.05;;;7.47;;
67997;SDS011;54773;53.388;-1.504;2023-05-21T02:18:27;12.10;;;6.97;;
67997;SDS011;54773;53.388;-1.504;2023-05-21T02:21:12;14.85;;;7.68;;
67997;SDS011;54773;53.388;-1.504;2023-05-21T02:23:55;12.80;;;7.70;;
67997;SDS011;54773;53.388;-1.504;2023-05-21T02:26:39;13.77;;;6.72;;
67997;SDS011;54773;53.388;-1.504;2023-05-21T02:29:24;15.48;;;7.38;;
67997;SDS011;54773;53.388;-1.504;2023-05-21T02:32:08;13.68;;;7.22;;
67997;SDS011;54773;53.388;-1.504;2023-05-21T02:34:52;19.83;;;7.88;;
67997;SDS011;54773;53.388;-1.504;2023-05-21T02:37:36;13.13;;;7.82;;
67997;SDS011;54773;53.388;-1.504;2023-05-21T02:40:20;13.85;;;7.47;;
67997;SDS011;54773;53.388;-1.504;2023-05-21T02:43:05;15.20;;;8.15;;
67997;SDS011;54773;53.388;-1.504;2023-05-21T02:45:49;14.53;;;7.20;;
67997;SDS011;54773;53.388;-1.504;2023-05-21T02:51:18;14.82;;;8.02;;
67997;SDS011;54773;53.388;-1.504;2023-05-21T02:54:02;16.23;;;7.57;;
67997;SDS011;54773;53.388;-1.504;2023-05-21T02:56:46;17.00;;;7.95;;
67997;SDS011;54773;53.388;-1.504;2023-05-21T02:59:30;16.83;;;8.37;;
67997;SDS011;54773;53.388;-1.504;2023-05-21T03:02:14;12.40;;;7.15;;
67997;SDS011;54773;53.388;-1.504;2023-05-21T03:04:59;15.88;;;7.47;;
67997;SDS011;54773;53.388;-1.504;2023-05-21T03:07:43;16.95;;;7.95;;
67997;SDS011;54773;53.388;-1.504;2023-05-21T03:10:27;11.30;;;6.95;;
67997;SDS011;54773;53.388;-1.504;2023-05-21T03:13:11;18.87;;;7.40;;
67997;SDS011;54773;53.388;-1.504;2023-05-21T03:15:55;15.80;;;7.73;;
67997;SDS011;54773;53.388;-1.504;2023-05-21T03:18:40;15.95;;;7.40;;
67997;SDS011;54773;53.388;-1.504;2023-05-21T03:21:24;15.27;;;7.57;;
67997;SDS011;54773;53.388;-1.504;2023-05-21T03:24:08;13.77;;;7.17;;
67997;SDS011;54773;53.388;-1.504;2023-05-21T03:26:52;12.50;;;7.60;;
67997;SDS011;54773;53.388;-1.504;2023-05-21T03:29:37;13.43;;;7.43;;
67997;SDS011;54773;53.388;-1.504;2023-05-21T03:32:22;14.13;;;7.55;;
67997;SDS011;54773;53.388;-1.504;2023-05-21T03:35:06;15.85;;;7.35;;
67997;SDS011;54773;53.388;-1.504;2023-05-21T03:37:51;13.07;;;6.95;;
67997;SDS011;54773;53.388;-1.504;2023-05-21T03:40:35;12.93;;;7.00;;
67997;SDS011;54773;53.388;-1.504;2023-05-21T03:43:19;12.07;;;6.95;;
67997;SDS011;54773;53.388;-1.504;2023-05-21T03:46:03;16.92;;;7.53;;
67997;SDS011;54773;53.388;-1.504;2023-05-21T03:48:48;12.20;;;6.87;;
67997;SDS011;54773;53.388;-1.504;2023-05-21T03:51:32;13.73;;;6.40;;
67997;SDS011;54773;53.388;-1.504;2023-05-21T03:54:17;12.63;;;5.60;;
67997;SDS011;54773;53.388;-1.504;2023-05-21T03:57:01;16.23;;;7.05;;
67997;SDS011;54773;53.388;-1.504;2023-05-21T03:59:45;10.33;;;5.93;;
67997;SDS011;54773;53.388;-1.504;2023-05-21T04:02:30;13.02;;;6.63;;
67997;SDS011;54773;53.388;-1.504;2023-05-21T04:05:15;12.98;;;6.82;;
67997;SDS011;54773;53.388;-1.504;2023-05-21T04:07:59;12.57;;;7.00;;
67997;SDS011;54773;53.388;-1.504;2023-05-21T04:10:43;13.70;;;5.70;;
67997;SDS011;54773;53.388;-1.504;2023-05-21T04:13:27;11.93;;;6.00;;
67997;SDS011;54773;53.388;-1.504;2023-05-21T04:16:11;12.23;;;7.00;;
67997;SDS011;54773;53.388;-1.504;2023-05-21T04:18:57;13.05;;;5.90;;
67997;SDS011;54773;53.388;-1.504;2023-05-21T04:21:41;13.93;;;6.60;;
67997;SDS011;54773;53.388;-1.504;2023-05-21T04:24:27;11.43;;;5.75;;
67997;SDS011;54773;53.388;-1.504;2023-05-21T04:27:11;13.27;;;6.00;;
67997;SDS011;54773;53.388;-1.504;2023-05-21T04:29:56;13.77;;;6.35;;
67997;SDS011;54773;53.388;-1.504;2023-05-21T04:32:40;9.75;;;5.90;;
67997;SDS011;54773;53.388;-1.504;2023-05-21T04:35:28;11.43;;;5.78;;
67997;SDS011;54773;53.388;-1.504;2023-05-21T04:38:12;12.57;;;5.93;;
67997;SDS011;54773;53.388;-1.504;2023-05-21T04:40:56;11.07;;;5.60;;
67997;SDS011;54773;53.388;-1.504;2023-05-21T04:43:41;9.45;;;5.30;;
67997;SDS011;54773;53.388;-1.504;2023-05-21T04:46:26;10.32;;;5.60;;
67997;SDS011;54773;53.388;-1.504;2023-05-21T04:49:10;12.15;;;5.82;;
67997;SDS011;54773;53.388;-1.504;2023-05-21T04:51:54;10.73;;;4.93;;
67997;SDS011;54773;53.388;-1.504;2023-05-21T04:54:39;12.85;;;5.47;;
67997;SDS011;54773;53.388;-1.504;2023-05-21T05:00:08;9.75;;;4.53;;
67997;SDS011;54773;53.388;-1.504;2023-05-21T05:02:53;10.15;;;4.97;;
67997;SDS011;54773;53.388;-1.504;2023-05-21T05:05:37;9.75;;;4.60;;
67997;SDS011;54773;53.388;-1.504;2023-05-21T05:08:22;10.65;;;5.40;;
67997;SDS011;54773;53.388;-1.504;2023-05-21T05:11:06;9.47;;;4.50;;
67997;SDS011;54773;53.388;-1.504;2023-05-21T05:13:50;7.53;;;3.77;;
67997;SDS011;54773;53.388;-1.504;2023-05-21T05:16:34;11.27;;;4.53;;
67997;SDS011;54773;53.388;-1.504;2023-05-21T05:19:19;10.32;;;3.95;;
67997;SDS011;54773;53.388;-1.504;2023-05-21T05:22:03;7.68;;;4.43;;
67997;SDS011;54773;53.388;-1.504;2023-05-21T05:24:47;9.80;;;4.35;;
67997;SDS011;54773;53.388;-1.504;2023-05-21T05:27:31;7.65;;;3.95;;
67997;SDS011;54773;53.388;-1.504;2023-05-21T05:30:16;8.18;;;4.10;;
67997;SDS011;54773;53.388;-1.504;2023-05-21T05:33:00;7.80;;;3.97;;
67997;SDS011;54773;53.388;-1.504;2023-05-21T05:35:44;8.38;;;4.47;;
67997;SDS011;54773;53.388;-1.504;2023-05-21T05:38:28;7.55;;;4.18;;
67997;SDS011;54773;53.388;-1.504;2023-05-21T05:41:12;7.80;;;4.27;;
67997;SDS011;54773;53.388;-1.504;2023-05-21T05:43:56;8.32;;;3.78;;
67997;SDS011;54773;53.388;-1.504;2023-05-21T05:46:40;8.30;;;4.35;;
67997;SDS011;54773;53.388;-1.504;2023-05-21T05:49:24;8.37;;;5.07;;
67997;SDS011;54773;53.388;-1.504;2023-05-21T05:52:08;7.68;;;5.07;;
67997;SDS011;54773;53.388;-1.504;2023-05-21T05:54:52;8.80;;;4.80;;
67997;SDS011;54773;53.388;-1.504;2023-05-21T05:57:36;7.23;;;4.43;;
67997;SDS011;54773;53.388;-1.504;2023-05-21T06:00:20;13.13;;;6.93;;
67997;SDS011;54773;53.388;-1.504;2023-05-21T06:03:05;14.70;;;7.97;;
67997;SDS011;54773;53.388;-1.504;2023-05-21T06:05:49;11.38;;;6.78;;
67997;SDS011;54773;53.388;-1.504;2023-05-21T06:08:34;12.50;;;6.10;;
67997;SDS011;54773;53.388;-1.504;2023-05-21T06:11:18;10.48;;;5.60;;
67997;SDS011;54773;53.388;-1.504;2023-05-21T06:14:02;10.57;;;5.47;;
67997;SDS011;54773;53.388;-1.504;2023-05-21T06:16:46;9.57;;;4.90;;
67997;SDS011;54773;53.388;-1.504;2023-05-21T06:19:30;8.60;;;4.57;;
67997;SDS011;54773;53.388;-1.504;2023-05-21T06:22:14;12.15;;;4.75;;
67997;SDS011;54773;53.388;-1.504;2023-05-21T06:24:58;9.40;;;3.87;;
67997;SDS011;54773;53.388;-1.504;2023-05-21T06:27:42;8.80;;;4.80;;
67997;SDS011;54773;53.388;-1.504;2023-05-21T06:30:26;8.93;;;4.90;;
67997;SDS011;54773;53.388;-1.504;2023-05-21T06:33:10;14.93;;;7.32;;
67997;SDS011;54773;53.388;-1.504;2023-05-21T06:35:55;11.15;;;5.10;;
67997;SDS011;54773;53.388;-1.504;2023-05-21T06:38:39;10.27;;;5.18;;
67997;SDS011;54773;53.388;-1.504;2023-05-21T06:41:26;9.15;;;4.63;;
67997;SDS011;54773;53.388;-1.504;2023-05-21T06:44:10;9.27;;;4.40;;
67997;SDS011;54773;53.388;-1.504;2023-05-21T06:46:54;9.80;;;4.67;;
67997;SDS011;54773;53.388;-1.504;2023-05-21T06:49:38;11.35;;;5.07;;
67997;SDS011;54773;53.388;-1.504;2023-05-21T06:52:22;10.50;;;5.33;;
67997;SDS011;54773;53.388;-1.504;2023-05-21T06:55:06;9.45;;;4.78;;
67997;SDS011;54773;53.388;-1.504;2023-05-21T06:57:50;11.13;;;5.50;;
67997;SDS011;54773;53.388;-1.504;2023-05-21T07:00:35;7.97;;;4.43;;
67997;SDS011;54773;53.388;-1.504;2023-05-21T07:03:19;9.80;;;4.75;;
67997;SDS011;54773;53.388;-1.504;2023-05-21T07:06:03;7.87;;;4.70;;
67997;SDS011;54773;53.388;-1.504;2023-05-21T07:08:47;12.35;;;5.63;;
67997;SDS011;54773;53.388;-1.504;2023-05-21T07:11:32;10.30;;;5.10;;
67997;SDS011;54773;53.388;-1.504;2023-05-21T07:14:16;7.75;;;4.53;;
67997;SDS011;54773;53.388;-1.504;2023-05-21T07:17:00;9.80;;;5.10;;
67997;SDS011;54773;53.388;-1.504;2023-05-21T07:19:44;11.73;;;5.00;;
67997;SDS011;54773;53.388;-1.504;2023-05-21T07:22:28;9.45;;;5.05;;
67997;SDS011;54773;53.388;-1.504;2023-05-21T07:25:12;12.35;;;5.90;;
67997;SDS011;54773;53.388;-1.504;2023-05-21T07:27:56;9.03;;;5.20;;
67997;SDS011;54773;53.388;-1.504;2023-05-21T07:30:39;11.43;;;4.93;;
67997;SDS011;54773;53.388;-1.504;2023-05-21T07:33:23;9.02;;;4.68;;
67997;SDS011;54773;53.388;-1.504;2023-05-21T07:36:08;9.98;;;5.28;;
67997;SDS011;54773;53.388;-1.504;2023-05-21T07:38:52;8.97;;;4.40;;
67997;SDS011;54773;53.388;-1.504;2023-05-21T07:41:36;10.23;;;4.95;;
67997;SDS011;54773;53.388;-1.504;2023-05-21T07:44:20;10.70;;;5.15;;
67997;SDS011;54773;53.388;-1.504;2023-05-21T07:47:04;8.67;;;4.97;;
67997;SDS011;54773;53.388;-1.504;2023-05-21T07:49:48;12.30;;;4.60;;
67997;SDS011;54773;53.388;-1.504;2023-05-21T07:52:32;8.80;;;4.80;;
67997;SDS011;54773;53.388;-1.504;2023-05-21T07:55:16;9.52;;;5.25;;
67997;SDS011;54773;53.388;-1.504;2023-05-21T07:58:00;10.43;;;5.07;;
67997;SDS011;54773;53.388;-1.504;2023-05-21T08:00:44;10.63;;;4.57;;
67997;SDS011;54773;53.388;-1.504;2023-05-21T08:03:30;9.55;;;4.50;;
67997;SDS011;54773;53.388;-1.504;2023-05-21T08:06:14;7.53;;;3.42;;
67997;SDS011;54773;53.388;-1.504;2023-05-21T08:08:59;8.00;;;3.17;;
67997;SDS011;54773;53.388;-1.504;2023-05-21T08:14:28;6.50;;;3.47;;
67997;SDS011;54773;53.388;-1.504;2023-05-21T08:17:12;5.47;;;2.57;;
67997;SDS011;54773;53.388;-1.504;2023-05-21T08:19:56;9.73;;;2.90;;
67997;SDS011;54773;53.388;-1.504;2023-05-21T08:22:40;6.85;;;3.20;;
67997;SDS011;54773;53.388;-1.504;2023-05-21T08:25:26;6.07;;;2.85;;
67997;SDS011;54773;53.388;-1.504;2023-05-21T08:28:10;6.60;;;3.03;;
67997;SDS011;54773;53.388;-1.504;2023-05-21T08:30:54;6.60;;;2.70;;
67997;SDS011;54773;53.388;-1.504;2023-05-21T08:33:39;10.55;;;3.30;;
67997;SDS011;54773;53.388;-1.504;2023-05-21T08:36:23;6.85;;;3.30;;
67997;SDS011;54773;53.388;-1.504;2023-05-21T08:39:07;7.05;;;2.97;;
67997;SDS011;54773;53.388;-1.504;2023-05-21T08:41:52;6.45;;;2.50;;
67997;SDS011;54773;53.388;-1.504;2023-05-21T08:44:41;8.07;;;3.40;;
67997;SDS011;54773;53.388;-1.504;2023-05-21T08:47:26;5.80;;;2.90;;
67997;SDS011;54773;53.388;-1.504;2023-05-21T08:50:14;6.18;;;2.80;;
67997;SDS011;54773;53.388;-1.504;2023-05-21T08:53:03;8.45;;;2.90;;
67997;SDS011;54773;53.388;-1.504;2023-05-21T08:55:46;7.23;;;2.77;;
67997;SDS011;54773;53.388;-1.504;2023-05-21T08:58:35;7.80;;;2.83;;
67997;SDS011;54773;53.388;-1.504;2023-05-21T09:01:20;5.72;;;2.75;;
67997;SDS011;54773;53.388;-1.504;2023-05-21T09:04:08;7.60;;;3.10;;
67997;SDS011;54773;53.388;-1.504;2023-05-21T09:06:53;6.70;;;3.10;;
67997;SDS011;54773;53.388;-1.504;2023-05-21T09:09:41;6.05;;;2.78;;
67997;SDS011;54773;53.388;-1.504;2023-05-21T09:12:30;7.50;;;2.92;;
67997;SDS011;54773;53.388;-1.504;2023-05-21T09:15:14;6.25;;;3.00;;
67997;SDS011;54773;53.388;-1.504;2023-05-21T09:17:59;6.38;;;3.00;;
67997;SDS011;54773;53.388;-1.504;2023-05-21T09:20:43;6.68;;;3.03;;
67997;SDS011;54773;53.388;-1.504;2023-05-21T09:23:28;7.22;;;2.88;;
67997;SDS011;54773;53.388;-1.504;2023-05-21T09:26:13;5.60;;;3.05;;
67997;SDS011;54773;53.388;-1.504;2023-05-21T09:31:43;6.22;;;3.25;;
67997;SDS011;54773;53.388;-1.504;2023-05-21T09:34:30;6.13;;;3.10;;
67997;SDS011;54773;53.388;-1.504;2023-05-21T09:37:14;5.57;;;2.85;;
67997;SDS011;54773;53.388;-1.504;2023-05-21T09:39:58;5.78;;;2.75;;
67997;SDS011;54773;53.388;-1.504;2023-05-21T09:42:53;7.07;;;3.20;;
67997;SDS011;54773;53.388;-1.504;2023-05-21T09:45:37;6.60;;;3.70;;
67997;SDS011;54773;53.388;-1.504;2023-05-21T09:48:31;8.98;;;3.15;;
67997;SDS011;54773;53.388;-1.504;2023-05-21T09:51:23;6.78;;;3.50;;
67997;SDS011;54773;53.388;-1.504;2023-05-21T09:54:07;6.25;;;2.90;;
67997;SDS011;54773;53.388;-1.504;2023-05-21T09:56:53;5.75;;;2.95;;
67997;SDS011;54773;53.388;-1.504;2023-05-21T09:59:38;7.72;;;3.17;;
67997;SDS011;54773;53.388;-1.504;2023-05-21T10:02:23;7.55;;;3.47;;
67997;SDS011;54773;53.388;-1.504;2023-05-21T10:05:09;5.53;;;2.70;;
67997;SDS011;54773;53.388;-1.504;2023-05-21T10:08:00;5.40;;;2.65;;
67997;SDS011;54773;53.388;-1.504;2023-05-21T10:10:45;6.97;;;3.30;;
67997;SDS011;54773;53.388;-1.504;2023-05-21T10:13:30;7.90;;;3.03;;
67997;SDS011;54773;53.388;-1.504;2023-05-21T10:16:17;6.13;;;2.97;;
67997;SDS011;54773;53.388;-1.504;2023-05-21T10:19:02;5.68;;;2.72;;
67997;SDS011;54773;53.388;-1.504;2023-05-21T10:21:50;7.05;;;3.85;;
67997;SDS011;54773;53.388;-1.504;2023-05-21T10:24:35;6.10;;;3.28;;
67997;SDS011;54773;53.388;-1.504;2023-05-21T10:27:23;7.07;;;2.88;;
67997;SDS011;54773;53.388;-1.504;2023-05-21T10:30:07;6.90;;;3.40;;
67997;SDS011;54773;53.388;-1.504;2023-05-21T10:32:55;6.95;;;3.22;;
67997;SDS011;54773;53.388;-1.504;2023-05-21T10:35:39;5.90;;;2.92;;
67997;SDS011;54773;53.388;-1.504;2023-05-21T10:38:24;6.05;;;3.45;;
67997;SDS011;54773;53.388;-1.504;2023-05-21T10:41:08;9.50;;;3.70;;
67997;SDS011;54773;53.388;-1.504;2023-05-21T10:56:24;9.55;;;4.45;;
67997;SDS011;54773;53.388;-1.504;2023-05-21T11:02:05;7.10;;;3.45;;
67997;SDS011;54773;53.388;-1.504;2023-05-21T11:04:56;9.20;;;3.80;;
67997;SDS011;54773;53.388;-1.504;2023-05-21T11:07:56;8.20;;;3.53;;
67997;SDS011;54773;53.388;-1.504;2023-05-21T11:10:41;5.10;;;3.05;;
67997;SDS011;54773;53.388;-1.504;2023-05-21T11:13:27;7.07;;;3.65;;
67997;SDS011;54773;53.388;-1.504;2023-05-21T11:16:14;6.70;;;3.42;;
67997;SDS011;54773;53.388;-1.504;2023-05-21T11:18:59;7.68;;;3.55;;
67997;SDS011;54773;53.388;-1.504;2023-05-21T11:21:50;8.18;;;3.47;;
67997;SDS011;54773;53.388;-1.504;2023-05-21T11:24:37;7.50;;;4.10;;
67997;SDS011;54773;53.388;-1.504;2023-05-21T11:27:36;5.57;;;3.60;;
67997;SDS011;54773;53.388;-1.504;2023-05-21T11:30:22;6.07;;;2.80;;
67997;SDS011;54773;53.388;-1.504;2023-05-21T11:35:56;8.00;;;2.90;;
67997;SDS011;54773;53.388;-1.504;2023-05-21T11:38:41;6.07;;;3.13;;
67997;SDS011;54773;53.388;-1.504;2023-05-21T11:41:25;8.13;;;3.42;;
67997;SDS011;54773;53.388;-1.504;2023-05-21T11:44:09;5.03;;;3.10;;
67997;SDS011;54773;53.388;-1.504;2023-05-21T11:46:53;4.50;;;2.80;;
67997;SDS011;54773;53.388;-1.504;2023-05-21T11:49:37;6.57;;;3.22;;
67997;SDS011;54773;53.388;-1.504;2023-05-21T11:52:22;8.90;;;3.55;;
67997;SDS011;54773;53.388;-1.504;2023-05-21T11:57:51;8.35;;;3.47;;
67997;SDS011;54773;53.388;-1.504;2023-05-21T12:00:39;8.00;;;3.88;;
67997;SDS011;54773;53.388;-1.504;2023-05-21T12:03:23;7.38;;;3.97;;
67997;SDS011;54773;53.388;-1.504;2023-05-21T12:06:09;6.28;;;2.55;;
67997;SDS011;54773;53.388;-1.504;2023-05-21T12:08:53;5.15;;;2.40;;
67997;SDS011;54773;53.388;-1.504;2023-05-21T12:11:41;6.10;;;2.83;;
67997;SDS011;54773;53.388;-1.504;2023-05-21T12:14:24;5.72;;;2.15;;
67997;SDS011;54773;53.388;-1.504;2023-05-21T12:17:08;3.92;;;1.80;;
67997;SDS011;54773;53.388;-1.504;2023-05-21T12:19:53;4.93;;;2.78;;
67997;SDS011;54773;53.388;-1.504;2023-05-21T12:22:40;5.97;;;2.58;;
67997;SDS011;54773;53.388;-1.504;2023-05-21T12:25:25;6.15;;;2.80;;
67997;SDS011;54773;53.388;-1.504;2023-05-21T12:30:54;4.70;;;2.50;;
67997;SDS011;54773;53.388;-1.504;2023-05-21T12:33:38;6.47;;;2.97;;
67997;SDS011;54773;53.388;-1.504;2023-05-21T12:36:24;5.35;;;2.30;;
67997;SDS011;54773;53.388;-1.504;2023-05-21T12:39:09;4.35;;;2.08;;
67997;SDS011;54773;53.388;-1.504;2023-05-21T12:41:54;5.60;;;2.20;;
67997;SDS011;54773;53.388;-1.504;2023-05-21T12:44:47;8.20;;;3.28;;
67997;SDS011;54773;53.388;-1.504;2023-05-21T12:47:31;6.78;;;2.92;;
67997;SDS011;54773;53.388;-1.504;2023-05-21T12:53:01;5.30;;;2.53;;
67997;SDS011;54773;53.388;-1.504;2023-05-21T12:55:45;5.00;;;2.70;;
67997;SDS011;54773;53.388;-1.504;2023-05-21T12:58:32;5.20;;;2.67;;
67997;SDS011;54773;53.388;-1.504;2023-05-21T13:01:16;4.78;;;2.70;;
67997;SDS011;54773;53.388;-1.504;2023-05-21T13:06:46;6.85;;;2.65;;
67997;SDS011;54773;53.388;-1.504;2023-05-21T13:09:30;5.85;;;2.70;;
67997;SDS011;54773;53.388;-1.504;2023-05-21T13:12:14;6.25;;;2.60;;
67997;SDS011;54773;53.388;-1.504;2023-05-21T13:14:59;5.68;;;2.38;;
67997;SDS011;54773;53.388;-1.504;2023-05-21T13:17:44;6.25;;;2.13;;
67997;SDS011;54773;53.388;-1.504;2023-05-21T13:20:28;5.07;;;2.33;;
67997;SDS011;54773;53.388;-1.504;2023-05-21T13:23:15;4.88;;;2.42;;
67997;SDS011;54773;53.388;-1.504;2023-05-21T13:25:59;5.10;;;1.92;;
67997;SDS011;54773;53.388;-1.504;2023-05-21T13:28:44;5.55;;;2.55;;
67997;SDS011;54773;53.388;-1.504;2023-05-21T13:31:27;5.28;;;2.33;;
67997;SDS011;54773;53.388;-1.504;2023-05-21T13:34:11;6.63;;;2.42;;
67997;SDS011;54773;53.388;-1.504;2023-05-21T13:36:55;4.70;;;2.35;;
67997;SDS011;54773;53.388;-1.504;2023-05-21T13:39:39;3.85;;;2.00;;
67997;SDS011;54773;53.388;-1.504;2023-05-21T13:42:23;4.72;;;2.03;;
67997;SDS011;54773;53.388;-1.504;2023-05-21T13:45:08;5.80;;;2.35;;
67997;SDS011;54773;53.388;-1.504;2023-05-21T13:47:54;6.45;;;2.50;;
67997;SDS011;54773;53.388;-1.504;2023-05-21T13:50:39;5.50;;;2.47;;
67997;SDS011;54773;53.388;-1.504;2023-05-21T13:53:23;4.95;;;2.17;;
67997;SDS011;54773;53.388;-1.504;2023-05-21T13:56:07;4.22;;;2.00;;
67997;SDS011;54773;53.388;-1.504;2023-05-21T13:58:51;5.20;;;2.03;;
67997;SDS011;54773;53.388;-1.504;2023-05-21T14:01:35;5.20;;;2.08;;
67997;SDS011;54773;53.388;-1.504;2023-05-21T14:04:19;5.43;;;2.80;;
67997;SDS011;54773;53.388;-1.504;2023-05-21T14:09:48;8.05;;;2.35;;
67997;SDS011;54773;53.388;-1.504;2023-05-21T14:12:36;6.75;;;2.58;;
67997;SDS011;54773;53.388;-1.504;2023-05-21T14:15:23;4.82;;;2.45;;
67997;SDS011;54773;53.388;-1.504;2023-05-21T14:18:10;4.82;;;2.50;;
67997;SDS011;54773;53.388;-1.504;2023-05-21T14:20:54;6.50;;;2.50;;
67997;SDS011;54773;53.388;-1.504;2023-05-21T14:23:38;6.40;;;2.70;;
67997;SDS011;54773;53.388;-1.504;2023-05-21T14:26:22;7.38;;;2.17;;
67997;SDS011;54773;53.388;-1.504;2023-05-21T14:29:06;6.40;;;2.50;;
67997;SDS011;54773;53.388;-1.504;2023-05-21T14:31:54;5.60;;;2.72;;
67997;SDS011;54773;53.388;-1.504;2023-05-21T14:34:37;5.28;;;2.25;;
67997;SDS011;54773;53.388;-1.504;2023-05-21T14:37:22;11.60;;;4.05;;
67997;SDS011;54773;53.388;-1.504;2023-05-21T14:40:06;5.63;;;2.47;;
67997;SDS011;54773;53.388;-1.504;2023-05-21T14:42:51;5.68;;;2.80;;
67997;SDS011;54773;53.388;-1.504;2023-05-21T14:45:35;5.57;;;2.30;;
67997;SDS011;54773;53.388;-1.504;2023-05-21T14:48:19;11.35;;;4.40;;
67997;SDS011;54773;53.388;-1.504;2023-05-21T14:51:06;6.40;;;3.00;;
67997;SDS011;54773;53.388;-1.504;2023-05-21T14:56:35;5.97;;;2.75;;
67997;SDS011;54773;53.388;-1.504;2023-05-21T14:59:18;6.88;;;3.40;;
67997;SDS011;54773;53.388;-1.504;2023-05-21T15:02:03;5.28;;;2.65;;
67997;SDS011;54773;53.388;-1.504;2023-05-21T15:04:47;8.85;;;2.90;;
67997;SDS011;54773;53.388;-1.504;2023-05-21T15:10:16;6.65;;;2.80;;
67997;SDS011;54773;53.388;-1.504;2023-05-21T15:13:05;7.80;;;3.13;;
67997;SDS011;54773;53.388;-1.504;2023-05-21T15:15:49;5.88;;;2.95;;
67997;SDS011;54773;53.388;-1.504;2023-05-21T15:21:18;6.03;;;2.85;;
67997;SDS011;54773;53.388;-1.504;2023-05-21T15:24:05;4.72;;;2.70;;
67997;SDS011;54773;53.388;-1.504;2023-05-21T15:26:49;5.80;;;2.95;;
67997;SDS011;54773;53.388;-1.504;2023-05-21T15:29:33;4.75;;;2.80;;
67997;SDS011;54773;53.388;-1.504;2023-05-21T15:32:17;6.00;;;3.00;;
67997;SDS011;54773;53.388;-1.504;2023-05-21T15:35:05;6.07;;;2.83;;
67997;SDS011;54773;53.388;-1.504;2023-05-21T15:40:33;5.97;;;2.53;;
67997;SDS011;54773;53.388;-1.504;2023-05-21T15:43:20;8.52;;;3.47;;
67997;SDS011;54773;53.388;-1.504;2023-05-21T15:46:04;6.47;;;3.05;;
67997;SDS011;54773;53.388;-1.504;2023-05-21T15:48:48;8.05;;;3.35;;
67997;SDS011;54773;53.388;-1.504;2023-05-21T15:51:32;5.80;;;3.15;;
67997;SDS011;54773;53.388;-1.504;2023-05-21T15:54:16;9.18;;;3.50;;
67997;SDS011;54773;53.388;-1.504;2023-05-21T15:56:59;6.90;;;2.95;;
67997;SDS011;54773;53.388;-1.504;2023-05-21T15:59:43;5.03;;;2.50;;
67997;SDS011;54773;53.388;-1.504;2023-05-21T16:02:27;7.47;;;2.72;;
67997;SDS011;54773;53.388;-1.504;2023-05-21T16:05:11;7.13;;;2.97;;
67997;SDS011;54773;53.388;-1.504;2023-05-21T16:07:55;8.13;;;3.15;;
67997;SDS011;54773;53.388;-1.504;2023-05-21T16:10:39;5.90;;;3.15;;
67997;SDS011;54773;53.388;-1.504;2023-05-21T16:13:23;6.45;;;3.10;;
67997;SDS011;54773;53.388;-1.504;2023-05-21T16:16:07;7.05;;;3.55;;
67997;SDS011;54773;53.388;-1.504;2023-05-21T16:18:51;5.63;;;3.13;;
67997;SDS011;54773;53.388;-1.504;2023-05-21T16:24:20;6.45;;;3.20;;
67997;SDS011;54773;53.388;-1.504;2023-05-21T16:27:04;7.50;;;3.15;;
67997;SDS011;54773;53.388;-1.504;2023-05-21T16:29:48;6.03;;;3.33;;
67997;SDS011;54773;53.388;-1.504;2023-05-21T16:32:32;8.38;;;3.30;;
67997;SDS011;54773;53.388;-1.504;2023-05-21T16:35:16;5.57;;;3.00;;
67997;SDS011;54773;53.388;-1.504;2023-05-21T16:38:03;5.75;;;2.88;;
67997;SDS011;54773;53.388;-1.504;2023-05-21T16:40:47;7.63;;;3.33;;
67997;SDS011;54773;53.388;-1.504;2023-05-21T16:43:34;5.93;;;2.92;;
67997;SDS011;54773;53.388;-1.504;2023-05-21T16:46:20;6.20;;;3.28;;
67997;SDS011;54773;53.388;-1.504;2023-05-21T16:49:03;5.85;;;3.53;;
67997;SDS011;54773;53.388;-1.504;2023-05-21T16:51:47;6.32;;;3.38;;
67997;SDS011;54773;53.388;-1.504;2023-05-21T16:54:34;6.80;;;3.00;;
67997;SDS011;54773;53.388;-1.504;2023-05-21T16:57:18;6.43;;;3.20;;
67997;SDS011;54773;53.388;-1.504;2023-05-21T17:00:05;6.97;;;3.30;;
67997;SDS011;54773;53.388;-1.504;2023-05-21T17:02:50;6.40;;;2.78;;
67997;SDS011;54773;53.388;-1.504;2023-05-21T17:05:34;9.30;;;4.80;;
67997;SDS011;54773;53.388;-1.504;2023-05-21T17:08:18;7.78;;;3.60;;
67997;SDS011;54773;53.388;-1.504;2023-05-21T17:11:02;6.88;;;3.25;;
67997;SDS011;54773;53.388;-1.504;2023-05-21T17:13:46;7.55;;;3.15;;
67997;SDS011;54773;53.388;-1.504;2023-05-21T17:16:30;5.72;;;2.90;;
67997;SDS011;54773;53.388;-1.504;2023-05-21T17:21:58;6.77;;;3.13;;
67997;SDS011;54773;53.388;-1.504;2023-05-21T17:27:26;6.38;;;3.58;;
67997;SDS011;54773;53.388;-1.504;2023-05-21T17:30:11;7.55;;;2.97;;
67997;SDS011;54773;53.388;-1.504;2023-05-21T17:32:55;6.68;;;3.22;;